createdAt,value
2023-05-21T00:02:29.929Z,16.20
2023-05-21T00:04:58.603Z,16.13
2023-05-21T00:07:34.172Z,16.15
2023-05-21T00:10:02.396Z,16.07
2023-05-21T00:12:32.575Z,15.94
2023-05-21T00:15:01.568Z,16.08
2023-05-21T00:17:29.934Z,15.93
2023-05-21T00:19:58.194Z,15.97
2023-05-21T00:22:26.435Z,15.94
2023-05-21T00:24:54.602Z,15.94
2023-05-21T00:27:22.794Z,15.88
2023-05-21T00:29:52.318Z,15.86
2023-05-21T00:32:20.576Z,15.83
2023-05-21T00:34:49.797Z,14.98
2023-05-21T00:37:18.024Z,15.77
2023-05-21T00:39:46.264Z,15.79
2023-05-21T00:42:18.104Z,15.74
2023-05-21T00:44:54.197Z,15.72
2023-05-21T00:47:24.434Z,15.78
2023-05-21T00:49:53.412Z,15.72
2023-05-21T00:52:23.011Z,15.27
2023-05-21T00:54:51.929Z,15.67
2023-05-21T00:57:21.684Z,15.71
2023-05-21T00:59:52.750Z,15.72
2023-05-21T01:02:24.194Z,15.62
2023-05-21T01:04:56.705Z,15.62
2023-05-21T01:07:24.910Z,15.57
2023-05-21T01:09:54.259Z,15.49
2023-05-21T01:12:24.562Z,15.57
2023-05-21T01:14:53.360Z,14.76
2023-05-21T01:17:24.480Z,14.80
2023-05-21T01:19:54.734Z,15.17
2023-05-21T01:22:24.926Z,15.31
2023-05-21T01:24:55.727Z,15.50
2023-05-21T01:27:24.327Z,15.42
2023-05-21T01:29:52.562Z,15.40
2023-05-21T01:32:28.399Z,15.45
2023-05-21T01:38:26.406Z,15.35
2023-05-21T01:41:03.705Z,15.09
2023-05-21T01:43:36.116Z,15.37
2023-05-21T01:46:05.544Z,15.35
2023-05-21T01:48:36.057Z,15.33
2023-05-21T01:51:07.047Z,15.28
2023-05-21T01:53:38.737Z,15.43
2023-05-21T01:56:09.260Z,15.23
2023-05-21T01:58:37.534Z,15.18
2023-05-21T02:01:06.837Z,15.15
2023-05-21T02:03:35.228Z,15.27
2023-05-21T02:06:14.412Z,15.21
2023-05-21T02:08:43.055Z,15.28
2023-05-21T02:11:12.801Z,15.19
2023-05-21T02:13:42.754Z,15.13
2023-05-21T02:16:11.790Z,15.24
2023-05-21T02:18:42.131Z,15.16
2023-05-21T02:21:11.577Z,15.05
2023-05-21T02:23:41.742Z,15.22
2023-05-21T02:26:09.988Z,15.18
2023-05-21T02:28:40.480Z,15.12
2023-05-21T02:31:08.795Z,15.18
2023-05-21T02:33:37.049Z,15.24
2023-05-21T02:36:06.564Z,15.13
2023-05-21T02:38:34.884Z,15.09
2023-05-21T02:41:03.183Z,15.17
2023-05-21T02:43:32.159Z,15.06
2023-05-21T02:46:01.845Z,15.09
2023-05-21T02:48:31.137Z,15.23
2023-05-21T02:51:00.134Z,15.09
2023-05-21T02:53:28.362Z,15.07
2023-05-21T02:55:56.915Z,15.06
2023-05-21T02:58:25.267Z,14.91
2023-05-21T03:00:53.910Z,15.19
2023-05-21T03:03:23.768Z,15.05
2023-05-21T03:05:53.003Z,15.10
2023-05-21T03:08:21.418Z,15.01
2023-05-21T03:10:50.564Z,14.99
2023-05-21T03:13:18.904Z,14.96
2023-05-21T03:15:47.529Z,14.94
2023-05-21T03:18:16.472Z,14.94
2023-05-21T03:20:46.069Z,14.98
2023-05-21T03:23:16.567Z,14.80
2023-05-21T03:25:47.876Z,14.95
2023-05-21T03:28:17.659Z,14.92
2023-05-21T03:30:49.632Z,14.77
2023-05-21T03:33:36.199Z,14.99
2023-05-21T03:36:17.414Z,14.90
2023-05-21T03:38:46.141Z,14.82
2023-05-21T03:41:14.512Z,14.94
2023-05-21T03:43:45.813Z,14.85
2023-05-21T03:46:14.361Z,14.89
2023-05-21T03:48:59.122Z,14.87
2023-05-21T03:51:31.727Z,14.66
2023-05-21T03:54:01.439Z,14.34
2023-05-21T03:56:29.924Z,14.67
2023-05-21T03:58:58.168Z,14.71
2023-05-21T04:01:28.426Z,14.71
2023-05-21T04:03:59.781Z,14.80
2023-05-21T04:06:32.537Z,14.78
2023-05-21T04:09:01.189Z,14.75
2023-05-21T04:11:29.444Z,14.72
2023-05-21T04:13:57.700Z,14.72
2023-05-21T04:16:25.947Z,14.88
2023-05-21T04:18:56.225Z,14.79
2023-05-21T04:21:27.000Z,14.86
2023-05-21T04:23:57.582Z,14.72
2023-05-21T04:26:35.422Z,14.73
2023-05-21T04:29:05.055Z,14.71
2023-05-21T04:31:33.624Z,14.64
2023-05-21T04:34:04.180Z,14.91
2023-05-21T04:36:33.824Z,14.83
2023-05-21T04:39:06.290Z,14.80
2023-05-21T04:41:34.701Z,14.84
2023-05-21T04:44:02.963Z,14.89
2023-05-21T04:46:34.913Z,14.65
2023-05-21T04:49:03.950Z,14.93
2023-05-21T04:51:32.649Z,14.92
2023-05-21T04:54:00.916Z,14.96
2023-05-21T04:56:31.943Z,14.93
2023-05-21T04:59:00.541Z,14.96
2023-05-21T05:01:29.453Z,14.98
2023-05-21T05:03:57.940Z,14.98
2023-05-21T05:06:26.783Z,15.04
2023-05-21T05:08:55.033Z,15.14
2023-05-21T05:11:23.386Z,15.15
2023-05-21T05:13:53.786Z,15.17
2023-05-21T05:16:25.486Z,15.22
2023-05-21T05:18:54.673Z,15.20
2023-05-21T05:21:24.526Z,15.27
2023-05-21T05:23:52.843Z,15.38
2023-05-21T05:26:25.456Z,15.23
2023-05-21T05:28:55.570Z,15.44
2023-05-21T05:31:23.924Z,15.54
2023-05-21T05:33:54.145Z,15.35
2023-05-21T05:36:24.225Z,15.48
2023-05-21T05:38:53.854Z,15.43
2023-05-21T05:41:23.649Z,15.59
2023-05-21T05:43:52.128Z,15.58
2023-05-21T05:46:24.225Z,15.61
2023-05-21T05:48:53.660Z,15.62
2023-05-21T05:51:22.042Z,15.74
2023-05-21T05:53:50.985Z,15.73
2023-05-21T05:56:19.250Z,15.76
2023-05-21T05:58:47.562Z,15.74
2023-05-21T06:01:17.677Z,15.77
2023-05-21T06:03:47.509Z,15.90
2023-05-21T06:06:20.629Z,16.06
2023-05-21T06:08:49.068Z,15.96
2023-05-21T06:11:19.075Z,16.12
2023-05-21T06:13:47.567Z,16.19
2023-05-21T06:16:18.092Z,16.24
2023-05-21T06:18:48.390Z,16.25
2023-05-21T06:21:16.677Z,16.26
2023-05-21T06:23:46.147Z,16.39
2023-05-21T06:26:14.370Z,16.31
2023-05-21T06:28:42.615Z,16.41
2023-05-21T06:31:13.621Z,16.44
2023-05-21T06:33:49.451Z,16.65
2023-05-21T06:36:18.405Z,16.55
2023-05-21T06:38:47.946Z,16.67
2023-05-21T06:41:16.428Z,16.75
2023-05-21T06:43:54.678Z,16.80
2023-05-21T06:46:41.439Z,16.79
2023-05-21T06:49:14.440Z,16.91
2023-05-21T06:51:43.404Z,16.82
2023-05-21T06:54:14.204Z,16.85
2023-05-21T06:56:43.252Z,16.98
2023-05-21T06:59:11.976Z,16.94
2023-05-21T07:01:42.511Z,17.00
2023-05-21T07:04:12.681Z,16.97
2023-05-21T07:06:42.544Z,17.29
2023-05-21T07:09:10.848Z,17.25
2023-05-21T07:11:39.659Z,17.33
2023-05-21T07:14:10.307Z,17.48
2023-05-21T07:16:39.649Z,17.69
2023-05-21T07:19:09.060Z,17.72
2023-05-21T07:21:38.982Z,17.84
2023-05-21T07:24:08.979Z,17.98
2023-05-21T07:26:40.561Z,18.10
2023-05-21T07:29:09.511Z,18.14
2023-05-21T07:31:38.131Z,18.29
2023-05-21T07:34:07.378Z,18.28
2023-05-21T07:36:35.685Z,18.27
2023-05-21T07:39:06.010Z,18.21
2023-05-21T07:41:34.486Z,18.20
2023-05-21T07:44:07.170Z,18.17
2023-05-21T07:46:40.167Z,18.22
2023-05-21T07:49:16.603Z,18.28
2023-05-21T07:51:46.366Z,18.41
2023-05-21T07:54:16.201Z,18.55
2023-05-21T07:56:44.498Z,18.69
2023-05-21T07:59:22.694Z,19.05
2023-05-21T08:01:51.023Z,19.02
2023-05-21T08:04:28.132Z,19.22
2023-05-21T08:06:56.522Z,19.43
2023-05-21T08:09:26.154Z,19.79
2023-05-21T08:11:54.417Z,19.73
2023-05-21T08:14:22.729Z,19.72
2023-05-21T08:16:51.448Z,20.11
2023-05-21T08:19:19.729Z,20.02
2023-05-21T08:21:49.697Z,20.13
2023-05-21T08:24:19.723Z,20.31
2023-05-21T08:26:50.663Z,20.54
2023-05-21T08:29:19.658Z,20.72
2023-05-21T08:31:49.408Z,20.80
2023-05-21T08:34:20.669Z,20.75
2023-05-21T08:36:58.832Z,21.00
2023-05-21T08:39:58.910Z,21.19
2023-05-21T08:42:41.512Z,21.40
2023-05-21T08:45:13.010Z,21.25
2023-05-21T08:47:44.519Z,21.83
2023-05-21T08:50:19.447Z,21.75
2023-05-21T08:52:48.705Z,21.76
2023-05-21T08:55:17.764Z,21.80
2023-05-21T08:57:47.388Z,21.81
2023-05-21T09:00:20.787Z,22.00
2023-05-21T09:02:49.770Z,22.04
2023-05-21T09:05:20.601Z,22.06
2023-05-21T09:08:00.900Z,21.96
2023-05-21T09:10:40.671Z,22.06
2023-05-21T09:13:12.573Z,22.25
2023-05-21T09:15:41.894Z,22.30
2023-05-21T09:18:10.851Z,22.30
2023-05-21T09:20:48.707Z,22.41
2023-05-21T09:23:19.184Z,22.62
2023-05-21T09:25:51.899Z,22.41
2023-05-21T09:28:31.126Z,22.58
2023-05-21T09:31:05.282Z,22.56
2023-05-21T09:33:34.582Z,22.54
2023-05-21T09:36:03.372Z,22.53
2023-05-21T09:38:35.079Z,22.65
2023-05-21T09:41:06.506Z,22.87
2023-05-21T09:43:38.111Z,22.68
2023-05-21T09:46:06.809Z,22.95
2023-05-21T09:48:37.310Z,22.93
2023-05-21T09:51:14.615Z,23.06
2023-05-21T09:53:50.851Z,23.19
2023-05-21T09:56:25.716Z,22.75
2023-05-21T09:58:56.790Z,23.55
2023-05-21T10:01:26.001Z,23.56
2023-05-21T10:04:09.243Z,23.67
2023-05-21T10:06:43.772Z,23.91
2023-05-21T10:09:13.121Z,23.95
2023-05-21T10:11:45.700Z,24.14
2023-05-21T10:14:18.334Z,24.13
2023-05-21T10:16:48.628Z,24.29
2023-05-21T10:19:17.398Z,24.28
2023-05-21T10:21:46.922Z,24.35
2023-05-21T10:24:15.660Z,24.41
2023-05-21T10:26:44.599Z,24.42
2023-05-21T10:29:15.959Z,24.51
2023-05-21T10:31:49.723Z,24.58
2023-05-21T10:34:18.699Z,24.59
2023-05-21T10:36:50.244Z,24.61
2023-05-21T10:39:20.895Z,24.48
2023-05-21T10:42:08.276Z,24.66
2023-05-21T10:44:52.288Z,24.89
2023-05-21T10:47:54.189Z,24.98
2023-05-21T10:51:14.785Z,25.01
2023-05-21T10:54:00.759Z,24.88
2023-05-21T10:56:37.818Z,24.90
2023-05-21T10:59:21.887Z,24.96
2023-05-21T11:01:53.605Z,24.97
2023-05-21T11:04:28.273Z,25.00
2023-05-21T11:06:57.245Z,24.91
2023-05-21T11:09:25.589Z,24.84
2023-05-21T11:11:58.786Z,24.66
2023-05-21T11:14:36.303Z,24.73
2023-05-21T11:17:13.712Z,24.63
2023-05-21T11:19:43.333Z,24.55
2023-05-21T11:22:23.448Z,24.94
2023-05-21T11:24:52.450Z,24.97
2023-05-21T11:27:36.946Z,24.87
2023-05-21T11:30:08.169Z,24.76
2023-05-21T11:32:40.908Z,24.78
2023-05-21T11:35:09.966Z,24.78
2023-05-21T11:37:41.749Z,24.56
2023-05-21T11:40:27.267Z,24.50
2023-05-21T11:42:57.073Z,24.65
2023-05-21T11:45:31.117Z,24.75
2023-05-21T11:48:01.817Z,24.78
2023-05-21T11:50:33.678Z,24.63
2023-05-21T11:53:02.243Z,24.69
2023-05-21T11:55:31.151Z,24.72
2023-05-21T11:58:00.299Z,24.48
2023-05-21T12:00:28.529Z,24.47
2023-05-21T12:02:57.251Z,24.52
2023-05-21T12:05:28.065Z,24.38
2023-05-21T12:07:58.408Z,24.53
2023-05-21T12:10:26.678Z,24.52
2023-05-21T12:12:57.325Z,24.59
2023-05-21T12:15:28.032Z,24.51
2023-05-21T12:17:57.863Z,24.46
2023-05-21T12:20:29.341Z,24.41
2023-05-21T12:23:00.314Z,24.39
2023-05-21T12:25:29.858Z,24.41
2023-05-21T12:27:58.933Z,24.48
2023-05-21T12:30:27.758Z,24.32
2023-05-21T12:33:02.064Z,24.23
2023-05-21T12:35:33.717Z,24.40
2023-05-21T12:38:03.932Z,24.54
2023-05-21T12:40:40.047Z,24.31
2023-05-21T12:43:08.611Z,24.52
2023-05-21T12:45:39.338Z,24.23
2023-05-21T12:50:41.778Z,24.43
2023-05-21T12:53:11.816Z,24.56
2023-05-21T12:55:40.462Z,24.56
2023-05-21T12:58:09.475Z,24.70
2023-05-21T13:00:38.641Z,24.13
2023-05-21T13:03:07.374Z,24.66
2023-05-21T13:05:41.409Z,24.67
2023-05-21T13:08:10.640Z,24.71
2023-05-21T13:10:39.072Z,25.37
2023-05-21T13:13:07.522Z,24.88
2023-05-21T13:15:36.300Z,24.88
2023-05-21T13:18:04.669Z,24.96
2023-05-21T13:20:32.891Z,25.27
2023-05-21T13:23:05.656Z,25.32
2023-05-21T13:25:34.954Z,25.62
2023-05-21T13:28:06.000Z,25.71
2023-05-21T13:30:34.338Z,25.71
2023-05-21T13:33:02.752Z,25.46
2023-05-21T13:35:32.220Z,25.61
2023-05-21T13:38:01.743Z,25.67
2023-05-21T13:40:30.041Z,25.59
2023-05-21T13:42:58.971Z,25.68
2023-05-21T13:45:29.117Z,25.62
2023-05-21T13:47:57.790Z,25.60
2023-05-21T13:50:26.551Z,25.43
2023-05-21T13:52:54.800Z,25.58
2023-05-21T13:55:24.488Z,25.61
2023-05-21T13:57:52.755Z,25.49
2023-05-21T14:00:21.236Z,25.42
2023-05-21T14:02:50.175Z,25.53
2023-05-21T14:05:18.793Z,25.31
2023-05-21T14:07:48.280Z,25.32
2023-05-21T14:10:17.849Z,25.34
2023-05-21T14:12:47.545Z,25.30
2023-05-21T14:15:16.134Z,25.27
2023-05-21T14:17:44.434Z,25.21
2023-05-21T14:20:13.577Z,25.32
2023-05-21T14:22:41.820Z,25.14
2023-05-21T14:25:10.817Z,25.07
2023-05-21T14:27:39.313Z,25.12
2023-05-21T14:30:10.976Z,25.09
2023-05-21T14:32:39.269Z,25.05
2023-05-21T14:35:08.133Z,24.99
2023-05-21T14:37:36.417Z,24.98
2023-05-21T14:40:07.772Z,24.94
2023-05-21T14:42:36.328Z,24.96
2023-05-21T14:45:18.259Z,24.88
2023-05-21T14:47:49.015Z,24.81
2023-05-21T14:50:21.260Z,24.85
2023-05-21T14:52:49.521Z,24.85
2023-05-21T14:55:18.500Z,24.88
2023-05-21T14:57:46.757Z,24.80
2023-05-21T15:00:16.115Z,24.76
2023-05-21T15:02:44.725Z,24.78
2023-05-21T15:05:14.425Z,24.70
2023-05-21T15:07:42.680Z,24.83
2023-05-21T15:10:11.628Z,24.71
2023-05-21T15:12:40.434Z,24.81
2023-05-21T15:15:10.674Z,24.43
2023-05-21T15:17:39.012Z,25.20
2023-05-21T15:20:09.438Z,25.06
2023-05-21T15:22:39.595Z,25.20
2023-05-21T15:25:08.858Z,25.23
2023-05-21T15:27:37.098Z,25.35
2023-05-21T15:30:06.960Z,25.46
2023-05-21T15:32:35.267Z,25.51
2023-05-21T15:35:03.635Z,25.62
2023-05-21T15:37:33.082Z,25.74
2023-05-21T15:40:02.896Z,25.59
2023-05-21T15:42:31.780Z,25.68
2023-05-21T15:45:00.277Z,25.60
2023-05-21T15:47:28.539Z,25.66
2023-05-21T15:49:58.604Z,25.80
2023-05-21T15:52:26.991Z,25.71
2023-05-21T15:54:55.555Z,25.78
2023-05-21T15:57:25.126Z,25.75
2023-05-21T15:59:53.393Z,25.83
2023-05-21T16:02:21.670Z,25.74
2023-05-21T16:04:51.752Z,25.89
2023-05-21T16:07:21.033Z,25.93
2023-05-21T16:09:49.265Z,25.82
2023-05-21T16:12:17.582Z,25.87
2023-05-21T16:14:50.808Z,25.97
2023-05-21T16:17:19.570Z,25.73
2023-05-21T16:19:48.232Z,25.55
2023-05-21T16:22:17.072Z,25.28
2023-05-21T16:24:45.437Z,25.07
2023-05-21T16:27:13.652Z,24.83
2023-05-21T16:29:42.160Z,24.66
2023-05-21T16:32:13.840Z,24.85
2023-05-21T16:34:42.465Z,24.58
2023-05-21T16:37:11.159Z,24.70
2023-05-21T16:39:39.825Z,24.35
2023-05-21T16:42:08.088Z,24.46
2023-05-21T16:44:37.705Z,24.63
2023-05-21T16:47:06.487Z,24.88
2023-05-21T16:49:36.073Z,24.84
2023-05-21T16:52:09.611Z,24.90
2023-05-21T16:54:38.368Z,25.09
2023-05-21T16:57:07.178Z,25.05
2023-05-21T16:59:35.414Z,24.94
2023-05-21T17:02:04.136Z,24.81
2023-05-21T17:04:32.385Z,24.66
2023-05-21T17:07:01.956Z,24.58
2023-05-21T17:09:30.248Z,24.51
2023-05-21T17:11:58.437Z,24.32
2023-05-21T17:14:34.135Z,24.33
2023-05-21T17:17:03.569Z,24.38
2023-05-21T17:19:31.930Z,24.41
2023-05-21T17:22:01.683Z,24.77
2023-05-21T17:24:29.972Z,24.64
2023-05-21T17:26:58.257Z,24.62
2023-05-21T17:29:26.606Z,24.70
2023-05-21T17:31:54.994Z,24.77
2023-05-21T17:34:26.132Z,24.76
2023-05-21T17:36:55.518Z,24.82
2023-05-21T17:39:25.342Z,24.71
2023-05-21T17:41:54.015Z,24.61
2023-05-21T17:44:22.504Z,24.65
2023-05-21T17:46:52.021Z,24.59
2023-05-21T17:49:20.676Z,24.72
2023-05-21T17:51:49.512Z,24.57
2023-05-21T17:54:18.072Z,24.55
2023-05-21T17:56:47.754Z,24.45
2023-05-21T17:59:16.593Z,24.37
2023-05-21T18:01:44.838Z,24.27
2023-05-21T18:04:13.588Z,24.17
2023-05-21T18:06:43.572Z,23.81
2023-05-21T18:09:14.248Z,23.74
2023-05-21T18:11:44.353Z,23.34
2023-05-21T18:14:13.983Z,23.40
2023-05-21T18:16:42.548Z,23.23
2023-05-21T18:19:10.960Z,23.10
2023-05-21T18:21:39.688Z,23.23
2023-05-21T18:24:08.857Z,23.10
2023-05-21T18:26:37.084Z,22.82
2023-05-21T18:29:05.874Z,22.80
2023-05-21T18:31:35.545Z,22.59
2023-05-21T18:34:03.839Z,22.59
2023-05-21T18:36:38.424Z,22.42
2023-05-21T18:39:07.618Z,22.31
2023-05-21T18:41:36.144Z,22.14
2023-05-21T18:44:05.955Z,22.16
2023-05-21T18:46:36.069Z,21.88
2023-05-21T18:49:04.965Z,21.78
2023-05-21T18:51:33.260Z,21.63
2023-05-21T18:54:01.555Z,21.77
2023-05-21T18:56:29.844Z,21.53
2023-05-21T18:58:58.466Z,21.19
2023-05-21T19:01:26.828Z,21.16
2023-05-21T19:03:56.481Z,20.94
2023-05-21T19:06:25.575Z,20.88
2023-05-21T19:08:53.867Z,21.01
2023-05-21T19:11:23.586Z,20.62
2023-05-21T19:13:52.598Z,20.83
2023-05-21T19:16:20.925Z,20.44
2023-05-21T19:18:49.306Z,20.38
2023-05-21T19:21:19.034Z,20.30
2023-05-21T19:23:53.237Z,20.17
2023-05-21T19:26:22.665Z,19.92
2023-05-21T19:28:53.421Z,19.76
2023-05-21T19:31:22.789Z,19.73
2023-05-21T19:33:52.885Z,19.73
2023-05-21T19:36:23.080Z,19.55
2023-05-21T19:38:51.967Z,19.45
2023-05-21T19:41:21.592Z,19.42
2023-05-21T19:43:49.866Z,19.44
2023-05-21T19:46:20.293Z,19.32
2023-05-21T19:48:49.205Z,19.38
2023-05-21T19:51:17.807Z,19.16
2023-05-21T19:53:47.657Z,19.21
2023-05-21T19:56:16.601Z,18.96
2023-05-21T19:58:47.136Z,19.04
2023-05-21T20:01:16.476Z,18.88
2023-05-21T20:03:49.990Z,18.74
2023-05-21T20:06:23.065Z,18.65
2023-05-21T20:08:52.743Z,18.61
2023-05-21T20:11:21.393Z,18.52
2023-05-21T20:13:50.375Z,18.57
2023-05-21T20:16:19.888Z,18.48
2023-05-21T20:18:48.905Z,18.41
2023-05-21T20:21:18.356Z,18.35
2023-05-21T20:23:46.874Z,18.40
2023-05-21T20:26:21.747Z,18.14
2023-05-21T20:28:49.994Z,18.08
2023-05-21T20:31:18.459Z,18.10
2023-05-21T20:33:46.699Z,17.96
2023-05-21T20:36:15.312Z,17.86
2023-05-21T20:38:43.624Z,17.88
2023-05-21T20:41:11.920Z,17.30
2023-05-21T20:43:41.543Z,17.80
2023-05-21T20:46:09.853Z,17.98
2023-05-21T20:48:38.244Z,17.72
2023-05-21T20:51:06.843Z,17.85
2023-05-21T20:53:35.528Z,17.92
2023-05-21T20:56:08.140Z,17.88
2023-05-21T20:58:36.614Z,18.16
2023-05-21T21:01:07.429Z,17.95
2023-05-21T21:03:41.365Z,18.09
2023-05-21T21:06:09.951Z,18.24
2023-05-21T21:08:40.175Z,18.10
2023-05-21T21:11:09.103Z,17.95
2023-05-21T21:13:37.660Z,18.01
2023-05-21T21:16:09.298Z,18.28
2023-05-21T21:18:38.004Z,17.93
2023-05-21T21:21:07.249Z,17.82
2023-05-21T21:23:35.512Z,17.85
2023-05-21T21:26:03.765Z,17.74
2023-05-21T21:28:32.071Z,17.56
2023-05-21T21:31:00.353Z,17.38
2023-05-21T21:33:30.016Z,17.42
2023-05-21T21:36:01.003Z,17.27
2023-05-21T21:38:29.284Z,17.19
2023-05-21T21:40:57.651Z,17.13
2023-05-21T21:43:25.905Z,17.09
2023-05-21T21:45:54.152Z,16.99
2023-05-21T21:48:22.419Z,16.74
2023-05-21T21:50:51.984Z,16.98
2023-05-21T21:53:20.696Z,17.03
2023-05-21T21:55:50.895Z,17.02
2023-05-21T21:58:19.124Z,16.98
2023-05-21T22:00:47.389Z,16.84
2023-05-21T22:03:16.490Z,16.86
2023-05-21T22:05:44.788Z,16.89
2023-05-21T22:08:14.387Z,16.44
2023-05-21T22:10:42.595Z,16.61
2023-05-21T22:13:11.061Z,16.72
2023-05-21T22:15:39.661Z,16.66
2023-05-21T22:18:09.645Z,16.62
2023-05-21T22:20:38.320Z,16.58
2023-05-21T22:23:07.295Z,16.63
2023-05-21T22:25:36.940Z,16.48
2023-05-21T22:28:05.542Z,16.65
2023-05-21T22:30:33.881Z,16.61
2023-05-21T22:33:02.320Z,16.78
2023-05-21T22:35:30.626Z,16.62
2023-05-21T22:37:59.065Z,16.62
2023-05-21T22:40:27.270Z,16.59
2023-05-21T22:42:56.948Z,16.83
2023-05-21T22:45:26.415Z,16.80
2023-05-21T22:47:56.723Z,16.76
2023-05-21T22:50:25.310Z,16.71
2023-05-21T22:52:53.796Z,16.82
2023-05-21T22:55:22.100Z,16.90
2023-05-21T22:57:50.808Z,16.87
2023-05-21T23:00:20.806Z,16.98
2023-05-21T23:02:52.204Z,16.80
2023-05-21T23:05:22.383Z,16.82
2023-05-21T23:07:51.072Z,16.75
2023-05-21T23:10:19.709Z,16.79
2023-05-21T23:12:47.914Z,16.77
2023-05-21T23:15:16.432Z,16.94
2023-05-21T23:17:46.133Z,16.89
2023-05-21T23:20:15.420Z,16.73
2023-05-21T23:22:43.639Z,16.50
2023-05-21T23:25:11.931Z,16.27
2023-05-21T23:27:40.161Z,16.18
2023-05-21T23:30:10.647Z,16.05
2023-05-21T23:32:39.012Z,15.93
2023-05-21T23:35:10.852Z,15.90
2023-05-21T23:37:39.080Z,15.88
2023-05-21T23:40:09.399Z,16.06
2023-05-21T23:42:38.111Z,16.01
2023-05-21T23:45:07.663Z,16.04
2023-05-21T23:47:35.920Z,15.99
2023-05-21T23:50:04.258Z,14.54
2023-05-21T23:52:33.898Z,15.87
2023-05-21T23:55:02.121Z,15.66
2023-05-21T23:57:30.733Z,15.79
2023-05-21T23:59:58.938Z,15.75
